createdAt,value
2022-11-08T00:00:18.598Z,53.76
2022-11-08T00:01:18.602Z,57.37
2022-11-08T00:02:18.711Z,59.92
2022-11-08T00:03:18.656Z,55.72
2022-11-08T00:04:18.567Z,48.47
2022-11-08T00:05:18.557Z,52.14
2022-11-08T00:06:18.562Z,48.05
2022-11-08T00:07:18.541Z,46.30
2022-11-08T00:08:18.964Z,51.65
2022-11-08T00:09:18.532Z,53.91
2022-11-08T00:10:18.525Z,50.93
2022-11-08T00:11:18.510Z,49.18
2022-11-08T00:12:18.515Z,52.45
2022-11-08T00:13:22.378Z,52.20
2022-11-08T00:14:18.491Z,58.82
2022-11-08T00:15:19.416Z,56.49
2022-11-08T00:16:18.474Z,51.45
2022-11-08T00:17:18.473Z,61.91
2022-11-08T00:18:18.814Z,47.74
2022-11-08T00:19:18.474Z,45.05
2022-11-08T00:20:18.447Z,54.42
2022-11-08T00:21:18.443Z,56.83
2022-11-08T00:22:18.441Z,58.06
2022-11-08T00:23:18.422Z,54.17
2022-11-08T00:24:18.419Z,57.36
2022-11-08T00:25:18.406Z,46.99
2022-11-08T00:26:18.470Z,50.22
2022-11-08T00:27:18.411Z,46.99
2022-11-08T00:30:18.627Z,61.60
2022-11-08T00:31:19.723Z,51.74
2022-11-08T00:32:19.722Z,51.26
2022-11-08T00:33:19.726Z,54.29
2022-11-08T00:34:19.686Z,60.10
2022-11-08T00:35:19.684Z,59.24
2022-11-08T00:36:19.677Z,49.75
2022-11-08T00:37:19.668Z,53.48
2022-11-08T00:38:19.906Z,57.60
2022-11-08T00:39:21.573Z,56.81
2022-11-08T00:40:19.647Z,58.99
2022-11-08T00:41:25.570Z,61.50
2022-11-08T00:42:20.498Z,61.97
2022-11-08T00:43:19.619Z,54.02
2022-11-08T00:44:19.612Z,59.70
2022-11-08T00:45:19.622Z,53.28
2022-11-08T00:46:19.603Z,58.64
2022-11-08T00:47:19.592Z,52.18
2022-11-08T00:48:21.494Z,51.87
2022-11-08T00:49:19.584Z,49.03
2022-11-08T00:50:19.560Z,55.90
2022-11-08T00:51:19.598Z,49.33
2022-11-08T00:52:21.491Z,57.64
2022-11-08T00:53:19.540Z,45.59
2022-11-08T00:54:19.527Z,43.86
2022-11-08T00:55:19.563Z,42.99
2022-11-08T00:56:19.511Z,52.31
2022-11-08T00:57:22.341Z,45.79
2022-11-08T00:58:26.216Z,59.17
2022-11-08T00:59:21.481Z,61.24
2022-11-08T01:00:19.480Z,62.41
2022-11-08T01:01:19.596Z,58.27
2022-11-08T01:02:19.558Z,52.75
2022-11-08T01:03:19.464Z,56.37
2022-11-08T01:04:19.458Z,55.04
2022-11-08T01:05:19.461Z,44.51
2022-11-08T01:06:19.443Z,59.64
2022-11-08T01:07:19.433Z,55.34
2022-11-08T01:08:19.747Z,46.05
2022-11-08T01:09:19.420Z,49.24
2022-11-08T01:10:19.403Z,49.59
2022-11-08T01:11:19.413Z,54.68
2022-11-08T01:12:19.387Z,49.93
2022-11-08T01:13:19.391Z,50.80
2022-11-08T01:14:19.373Z,51.46
2022-11-08T01:15:19.399Z,45.23
2022-11-08T01:16:19.363Z,51.02
2022-11-08T01:17:19.355Z,64.35
2022-11-08T01:18:19.667Z,55.74
2022-11-08T01:19:20.031Z,54.67
2022-11-08T01:20:21.077Z,51.71
2022-11-08T01:21:19.406Z,47.23
2022-11-08T01:22:19.315Z,55.74
2022-11-08T01:23:19.334Z,48.02
2022-11-08T01:24:19.281Z,42.46
2022-11-08T01:25:20.277Z,63.55
2022-11-08T01:26:19.267Z,44.33
2022-11-08T01:27:19.261Z,50.01
2022-11-08T01:28:19.667Z,53.57
2022-11-08T01:29:19.263Z,60.89
2022-11-08T01:30:20.007Z,54.07
2022-11-08T01:31:19.235Z,52.87
2022-11-08T01:32:19.229Z,60.13
2022-11-08T01:33:19.232Z,53.17
2022-11-08T01:34:19.222Z,50.94
2022-11-08T01:35:19.199Z,41.54
2022-11-08T01:36:19.212Z,50.19
2022-11-08T01:37:19.188Z,56.46
2022-11-08T01:38:19.732Z,57.76
2022-11-08T01:39:19.171Z,58.46
2022-11-08T01:40:19.165Z,46.61
2022-11-08T01:41:19.155Z,44.68
2022-11-08T01:42:19.159Z,57.75
2022-11-08T01:43:19.151Z,58.26
2022-11-08T01:44:19.124Z,55.44
2022-11-08T01:45:19.111Z,56.83
2022-11-08T01:46:19.108Z,56.45
2022-11-08T01:47:19.094Z,51.97
2022-11-08T01:48:19.602Z,54.08
2022-11-08T01:49:19.111Z,61.48
2022-11-08T01:50:19.083Z,45.79
2022-11-08T01:51:19.061Z,51.86
2022-11-08T01:52:19.057Z,50.88
2022-11-08T01:53:19.059Z,49.84
2022-11-08T01:54:20.012Z,43.04
2022-11-08T01:55:19.037Z,45.47
2022-11-08T01:56:19.031Z,51.05
2022-11-08T01:57:19.018Z,51.61
2022-11-08T01:58:19.310Z,57.40
2022-11-08T01:59:19.015Z,59.69
2022-11-08T02:00:18.991Z,57.47
2022-11-08T02:01:19.074Z,53.37
2022-11-08T02:02:19.019Z,50.84
2022-11-08T02:03:18.975Z,52.31
2022-11-08T02:04:18.982Z,50.43
2022-11-08T02:05:19.589Z,56.50
2022-11-08T02:06:18.943Z,47.76
2022-11-08T02:07:18.960Z,49.55
2022-11-08T02:08:19.239Z,61.42
2022-11-08T02:09:18.919Z,56.69
2022-11-08T02:10:18.926Z,55.60
2022-11-08T02:11:18.911Z,50.57
2022-11-08T02:12:18.905Z,52.58
2022-11-08T02:13:18.892Z,46.23
2022-11-08T02:14:18.902Z,61.59
2022-11-08T02:15:18.870Z,55.79
2022-11-08T02:16:18.867Z,60.89
2022-11-08T02:17:18.905Z,59.36
2022-11-08T02:18:19.244Z,52.02
2022-11-08T02:19:18.870Z,54.23
2022-11-08T02:20:18.837Z,53.48
2022-11-08T02:21:18.827Z,60.20
2022-11-08T02:22:18.822Z,58.46
2022-11-08T02:23:18.822Z,52.66
2022-11-08T02:24:18.806Z,49.52
2022-11-08T02:25:18.792Z,44.61
2022-11-08T02:26:18.791Z,59.23
2022-11-08T02:27:18.800Z,60.35
2022-11-08T02:28:19.107Z,53.57
2022-11-08T02:29:18.767Z,57.16
2022-11-08T02:30:18.760Z,51.08
2022-11-08T02:31:18.754Z,45.05
2022-11-08T02:32:18.750Z,50.01
2022-11-08T02:33:18.753Z,49.55
2022-11-08T02:34:18.724Z,51.01
2022-11-08T02:35:18.729Z,55.48
2022-11-08T02:36:18.713Z,48.24
2022-11-08T02:37:18.704Z,50.54
2022-11-08T02:38:19.004Z,53.65
2022-11-08T02:39:18.684Z,51.39
2022-11-08T02:40:18.688Z,51.99
2022-11-08T02:41:18.692Z,62.90
2022-11-08T02:42:18.690Z,55.37
2022-11-08T02:43:18.661Z,54.69
2022-11-08T02:44:18.665Z,55.65
2022-11-08T02:45:18.646Z,56.75
2022-11-08T02:46:18.638Z,52.89
2022-11-08T02:47:18.622Z,63.30
2022-11-08T02:48:19.115Z,49.47
2022-11-08T02:49:18.645Z,47.47
2022-11-08T02:50:18.612Z,56.44
2022-11-08T02:51:18.603Z,55.93
2022-11-08T02:52:18.583Z,50.97
2022-11-08T02:53:19.106Z,57.47
2022-11-08T02:54:18.576Z,53.29
2022-11-08T02:55:18.553Z,58.59
2022-11-08T02:56:18.531Z,48.62
2022-11-08T02:57:19.542Z,50.82
2022-11-08T02:58:18.862Z,52.77
2022-11-08T02:59:18.529Z,56.99
2022-11-08T03:00:18.530Z,58.39
2022-11-08T03:01:18.614Z,55.78
2022-11-08T03:02:18.618Z,59.83
2022-11-08T03:03:18.496Z,55.61
2022-11-08T03:04:18.491Z,49.81
2022-11-08T03:05:18.468Z,57.88
2022-11-08T03:06:18.463Z,50.71
2022-11-08T03:07:23.689Z,55.25
2022-11-08T03:08:21.164Z,58.39
2022-11-08T03:09:18.444Z,58.51
2022-11-08T03:10:18.428Z,62.45
2022-11-08T03:11:18.421Z,58.67
2022-11-08T03:12:18.421Z,58.44
2022-11-08T03:13:18.400Z,56.35
2022-11-08T03:14:18.406Z,60.18
2022-11-08T03:15:18.400Z,61.51
2022-11-08T03:16:18.378Z,56.89
2022-11-08T03:17:18.365Z,59.28
2022-11-08T03:18:18.731Z,60.26
2022-11-08T03:19:18.352Z,56.18
2022-11-08T03:20:18.353Z,58.47
2022-11-08T03:21:18.337Z,60.23
2022-11-08T03:22:18.326Z,57.72
2022-11-08T03:23:18.319Z,53.47
2022-11-08T03:24:18.323Z,58.32
2022-11-08T03:25:18.312Z,60.76
2022-11-08T03:26:18.300Z,61.70
2022-11-08T03:27:19.105Z,58.73
2022-11-08T03:28:22.654Z,56.83
2022-11-08T03:29:19.285Z,56.40
2022-11-08T03:30:18.268Z,61.97
2022-11-08T03:31:18.262Z,56.45
2022-11-08T03:32:18.250Z,61.29
2022-11-08T03:33:18.247Z,58.96
2022-11-08T03:34:18.237Z,60.40
2022-11-08T03:35:18.224Z,58.31
2022-11-08T03:36:18.226Z,60.41
2022-11-08T03:37:18.203Z,59.70
2022-11-08T03:38:18.440Z,60.28
2022-11-08T03:39:18.195Z,59.53
2022-11-08T03:40:18.181Z,57.00
2022-11-08T03:41:18.176Z,56.49
2022-11-08T03:42:18.165Z,58.38
2022-11-08T03:43:18.154Z,59.25
2022-11-08T03:44:18.155Z,58.71
2022-11-08T03:45:18.144Z,60.76
2022-11-08T03:46:18.143Z,58.05
2022-11-08T03:47:18.112Z,56.21
2022-11-08T03:48:19.592Z,60.36
2022-11-08T03:49:18.111Z,60.02
2022-11-08T03:50:18.103Z,54.33
2022-11-08T03:51:18.097Z,56.04
2022-11-08T03:52:18.077Z,56.65
2022-11-08T03:53:18.088Z,61.37
2022-11-08T03:54:18.070Z,58.75
2022-11-08T03:55:18.061Z,58.86
2022-11-08T03:56:18.045Z,62.61
2022-11-08T03:57:19.611Z,62.54
2022-11-08T03:58:18.252Z,57.98
2022-11-08T03:59:18.029Z,55.02
2022-11-08T04:00:18.022Z,54.89
2022-11-08T04:01:18.092Z,56.88
2022-11-08T04:02:18.093Z,56.69
2022-11-08T04:03:17.985Z,61.20
2022-11-08T04:04:17.987Z,57.93
2022-11-08T04:05:17.970Z,58.35
2022-11-08T04:06:17.964Z,55.29
2022-11-08T04:07:17.960Z,55.27
2022-11-08T04:08:18.302Z,60.45
2022-11-08T04:09:21.511Z,59.88
2022-11-08T04:10:18.943Z,61.83
2022-11-08T04:11:17.932Z,62.57
2022-11-08T04:12:17.941Z,59.64
2022-11-08T04:13:17.913Z,60.14
2022-11-08T04:14:17.900Z,63.10
2022-11-08T04:15:17.895Z,66.50
2022-11-08T04:16:18.124Z,60.70
2022-11-08T04:17:18.884Z,61.75
2022-11-08T04:18:18.373Z,66.12
2022-11-08T04:19:17.857Z,62.44
2022-11-08T04:20:17.851Z,66.00
2022-11-08T04:21:17.850Z,66.53
2022-11-08T04:22:17.848Z,63.26
2022-11-08T04:23:17.877Z,63.01
2022-11-08T04:24:17.829Z,67.53
2022-11-08T04:25:50.085Z,63.68
2022-11-08T04:26:17.802Z,61.29
2022-11-08T04:27:17.798Z,63.38
2022-11-08T04:28:18.024Z,60.87
2022-11-08T04:29:17.779Z,60.47
2022-11-08T04:30:17.759Z,61.75
2022-11-08T04:31:18.761Z,61.98
2022-11-08T04:32:17.741Z,62.17
2022-11-08T04:33:17.742Z,61.47
2022-11-08T04:34:49.948Z,61.15
2022-11-08T04:35:17.728Z,67.05
2022-11-08T04:36:19.598Z,66.30
2022-11-08T04:37:17.722Z,64.30
2022-11-08T04:38:19.061Z,64.21
2022-11-08T04:39:17.688Z,65.14
2022-11-08T04:40:17.677Z,62.07
2022-11-08T04:41:17.675Z,62.72
2022-11-08T04:42:17.670Z,62.16
2022-11-08T04:43:17.734Z,61.46
2022-11-08T04:44:17.665Z,63.23
2022-11-08T04:45:17.641Z,64.14
2022-11-08T04:46:17.634Z,60.96
2022-11-08T04:47:17.626Z,62.22
2022-11-08T04:48:17.877Z,63.71
2022-11-08T04:49:17.605Z,62.18
2022-11-08T04:50:17.600Z,66.92
2022-11-08T04:51:17.590Z,62.39
2022-11-08T04:52:17.598Z,64.76
2022-11-08T04:53:17.584Z,65.13
2022-11-08T04:54:18.185Z,62.00
2022-11-08T04:55:17.571Z,65.53
2022-11-08T04:56:17.546Z,64.66
2022-11-08T04:57:17.541Z,66.42
2022-11-08T04:58:17.872Z,63.52
2022-11-08T04:59:17.524Z,61.49
2022-11-08T05:00:18.183Z,62.46
2022-11-08T05:01:17.713Z,66.55
2022-11-08T05:02:17.637Z,62.52
2022-11-08T05:03:20.098Z,64.78
2022-11-08T05:04:17.498Z,66.97
2022-11-08T05:05:17.602Z,63.21
2022-11-08T05:06:17.469Z,63.90
2022-11-08T05:07:17.469Z,63.33
2022-11-08T05:08:17.744Z,62.62
2022-11-08T05:09:19.193Z,64.70
2022-11-08T05:10:17.450Z,65.58
2022-11-08T05:11:17.443Z,62.62
2022-11-08T05:12:17.417Z,65.35
2022-11-08T05:13:20.107Z,62.44
2022-11-08T05:14:17.422Z,63.63
2022-11-08T05:17:26.882Z,64.44
2022-11-08T05:18:25.061Z,66.85
2022-11-08T05:19:26.871Z,68.01
2022-11-08T05:20:25.038Z,66.85
2022-11-08T05:21:25.025Z,66.35
2022-11-08T05:22:25.021Z,63.47
2022-11-08T05:23:25.016Z,65.90
2022-11-08T05:24:26.886Z,64.06
2022-11-08T05:25:25.871Z,66.08
2022-11-08T05:26:25.981Z,64.54
2022-11-08T05:27:24.982Z,66.85
2022-11-08T05:28:24.983Z,64.70
2022-11-08T05:29:24.971Z,63.33
2022-11-08T05:30:24.953Z,63.32
2022-11-08T05:31:24.944Z,65.83
2022-11-08T05:32:24.953Z,67.35
2022-11-08T05:33:24.938Z,66.24
2022-11-08T05:34:24.925Z,65.36
2022-11-08T05:35:25.873Z,65.29
2022-11-08T05:36:24.905Z,67.03
2022-11-08T05:37:24.900Z,65.44
2022-11-08T05:38:25.984Z,64.20
2022-11-08T05:39:30.972Z,66.13
2022-11-08T05:40:33.032Z,63.54
2022-11-08T05:41:27.962Z,64.17
2022-11-08T05:42:25.956Z,66.86
2022-11-08T05:43:25.952Z,66.76
2022-11-08T05:44:27.889Z,64.98
2022-11-08T05:45:25.977Z,65.73
2022-11-08T05:46:26.470Z,65.95
2022-11-08T05:47:25.921Z,63.58
2022-11-08T05:48:25.918Z,67.26
2022-11-08T05:49:30.458Z,65.23
2022-11-08T05:50:25.888Z,67.38
2022-11-08T05:51:25.888Z,67.93
2022-11-08T05:52:25.873Z,65.39
2022-11-08T05:53:27.456Z,69.48
2022-11-08T05:54:25.869Z,67.42
2022-11-08T05:55:25.844Z,67.39
2022-11-08T05:56:25.839Z,66.59
2022-11-08T05:57:25.830Z,72.02
2022-11-08T05:58:25.832Z,64.33
2022-11-08T05:59:25.821Z,63.63
2022-11-08T06:00:27.455Z,66.54
2022-11-08T06:01:25.891Z,65.39
2022-11-08T06:02:25.960Z,68.94
2022-11-08T06:03:26.152Z,64.90
2022-11-08T06:04:27.389Z,66.25
2022-11-08T06:05:25.765Z,67.25
2022-11-08T06:06:29.417Z,68.89
2022-11-08T06:07:28.429Z,66.32
2022-11-08T06:08:25.768Z,68.60
2022-11-08T06:09:25.736Z,70.94
2022-11-08T06:10:25.735Z,68.12
2022-11-08T06:11:25.715Z,67.74
2022-11-08T06:12:25.722Z,66.55
2022-11-08T06:13:28.869Z,65.10
2022-11-08T06:14:25.696Z,66.23
2022-11-08T06:15:25.686Z,65.77
2022-11-08T06:16:25.692Z,66.18
2022-11-08T06:17:26.227Z,68.56
2022-11-08T06:18:27.668Z,68.78
2022-11-08T06:19:27.473Z,66.48
2022-11-08T06:20:25.670Z,70.47
2022-11-08T06:21:25.662Z,70.70
2022-11-08T06:22:25.638Z,66.56
2022-11-08T06:23:25.628Z,69.57
2022-11-08T06:24:25.626Z,65.88
2022-11-08T06:25:25.611Z,66.56
2022-11-08T06:26:25.611Z,66.49
2022-11-08T06:27:25.601Z,69.78
2022-11-08T06:28:26.473Z,67.96
2022-11-08T06:29:25.582Z,69.31
2022-11-08T06:30:28.464Z,69.27
2022-11-08T06:31:26.396Z,69.20
2022-11-08T06:32:29.394Z,68.16
2022-11-08T06:33:27.393Z,68.77
2022-11-08T06:34:25.542Z,72.48
2022-11-08T06:35:27.465Z,75.05
2022-11-08T06:36:28.892Z,75.55
2022-11-08T06:37:25.533Z,73.46
2022-11-08T06:38:25.528Z,73.46
2022-11-08T06:39:26.439Z,70.95
2022-11-08T06:40:25.524Z,71.21
2022-11-08T06:41:25.487Z,72.69
2022-11-08T06:42:25.486Z,68.36
2022-11-08T06:43:25.881Z,68.47
2022-11-08T06:44:25.470Z,67.37
2022-11-08T06:45:25.465Z,68.89
2022-11-08T06:46:25.452Z,71.25
2022-11-08T06:47:25.551Z,69.61
2022-11-08T06:48:25.429Z,74.95
2022-11-08T06:49:25.439Z,73.90
2022-11-08T06:50:26.997Z,68.47
2022-11-08T06:51:25.433Z,67.58
2022-11-08T06:52:25.399Z,68.86
2022-11-08T06:53:26.908Z,69.88
2022-11-08T06:54:27.090Z,69.20
2022-11-08T06:55:26.398Z,70.10
2022-11-08T06:56:25.895Z,68.78
2022-11-08T06:57:26.922Z,69.19
2022-11-08T06:58:25.903Z,72.00
2022-11-08T06:59:25.383Z,68.58
2022-11-08T07:00:25.981Z,70.51
2022-11-08T07:01:27.173Z,70.82
2022-11-08T07:02:25.617Z,71.47
2022-11-08T07:03:25.316Z,69.50
2022-11-08T07:04:25.312Z,70.29
2022-11-08T07:05:26.901Z,70.37
2022-11-08T07:06:28.896Z,71.17
2022-11-08T07:09:31.600Z,71.91
2022-11-08T07:10:31.574Z,70.07
2022-11-08T07:11:31.555Z,69.72
2022-11-08T07:12:32.637Z,71.92
2022-11-08T07:13:32.635Z,67.27
2022-11-08T07:14:32.628Z,67.58
2022-11-08T07:15:32.628Z,68.60
2022-11-08T07:16:34.501Z,71.88
2022-11-08T07:17:38.489Z,70.96
2022-11-08T07:18:34.617Z,69.26
2022-11-08T07:19:32.596Z,71.19
2022-11-08T07:20:32.577Z,71.20
2022-11-08T07:21:32.629Z,69.70
2022-11-08T07:22:32.600Z,67.72
2022-11-08T07:23:32.554Z,68.47
2022-11-08T07:24:32.542Z,69.96
2022-11-08T07:25:32.595Z,70.45
2022-11-08T07:26:32.525Z,69.87
2022-11-08T07:27:32.518Z,69.32
2022-11-08T07:28:33.444Z,70.45
2022-11-08T07:29:32.495Z,69.46
2022-11-08T07:30:34.448Z,67.72
2022-11-08T07:31:32.484Z,69.19
2022-11-08T07:32:32.473Z,68.96
2022-11-08T07:33:32.465Z,66.93
2022-11-08T07:34:32.456Z,66.17
2022-11-08T07:35:32.463Z,68.12
2022-11-08T07:36:32.449Z,70.31
2022-11-08T07:37:34.934Z,67.39
2022-11-08T07:38:33.426Z,67.83
2022-11-08T07:39:34.031Z,67.24
2022-11-08T07:40:34.013Z,67.31
2022-11-08T07:41:32.406Z,68.01
2022-11-08T07:42:50.011Z,71.93
2022-11-08T07:43:34.388Z,68.55
2022-11-08T07:44:33.373Z,67.35
2022-11-08T07:45:32.367Z,68.23
2022-11-08T07:46:32.381Z,65.52
2022-11-08T07:47:32.379Z,66.60
2022-11-08T07:48:32.348Z,67.79
2022-11-08T07:49:32.955Z,66.66
2022-11-08T07:50:32.329Z,65.46
2022-11-08T07:51:32.324Z,68.75
2022-11-08T07:52:32.336Z,68.38
2022-11-08T07:53:32.307Z,67.72
2022-11-08T07:54:32.296Z,67.88
2022-11-08T07:55:32.301Z,67.99
2022-11-08T07:56:32.284Z,68.57
2022-11-08T07:57:32.276Z,68.15
2022-11-08T07:58:33.942Z,68.96
2022-11-08T07:59:32.258Z,66.27
2022-11-08T08:00:32.250Z,67.53
2022-11-08T08:01:32.308Z,67.28
2022-11-08T08:02:32.307Z,67.13
2022-11-08T08:03:33.072Z,67.60
2022-11-08T08:04:32.225Z,68.61
2022-11-08T08:05:33.939Z,68.23
2022-11-08T08:07:05.969Z,65.27
2022-11-08T08:07:34.044Z,66.00
2022-11-08T08:09:04.524Z,67.02
2022-11-08T08:09:32.992Z,68.28
2022-11-08T08:12:51.138Z,67.74
2022-11-08T08:13:51.051Z,66.79
2022-11-08T08:14:51.045Z,65.91
2022-11-08T08:15:51.073Z,66.73
2022-11-08T08:16:52.895Z,64.53
2022-11-08T08:17:51.088Z,69.31
2022-11-08T08:18:56.154Z,68.25
2022-11-08T08:19:51.899Z,68.19
2022-11-08T08:20:51.913Z,68.66
2022-11-08T08:21:50.986Z,68.75
2022-11-08T08:22:52.071Z,67.94
2022-11-08T08:23:54.002Z,68.60
2022-11-08T08:24:52.062Z,65.60
2022-11-08T08:25:52.053Z,66.17
2022-11-08T08:26:52.047Z,63.74
2022-11-08T08:27:52.037Z,62.83
2022-11-08T08:28:52.062Z,64.90
2022-11-08T08:29:55.906Z,66.70
2022-11-08T08:30:53.010Z,67.80
2022-11-08T08:31:52.984Z,68.59
2022-11-08T08:33:08.508Z,66.33
2022-11-08T08:33:54.005Z,69.37
2022-11-08T08:34:51.986Z,68.77
2022-11-08T08:35:53.916Z,67.10
2022-11-08T08:36:51.975Z,67.17
2022-11-08T08:37:51.986Z,66.86
2022-11-08T08:38:52.908Z,66.16
2022-11-08T08:39:51.949Z,65.56
2022-11-08T08:40:51.958Z,70.06
2022-11-08T08:41:51.944Z,67.35
2022-11-08T08:42:51.945Z,66.39
2022-11-08T08:43:51.942Z,68.19
2022-11-08T08:44:51.916Z,66.02
2022-11-08T08:45:51.890Z,67.19
2022-11-08T08:46:53.550Z,66.90
2022-11-08T08:47:51.904Z,65.06
2022-11-08T08:48:51.876Z,64.66
2022-11-08T08:49:51.875Z,66.73
2022-11-08T08:50:51.877Z,67.96
2022-11-08T08:51:51.869Z,67.63
2022-11-08T08:52:51.867Z,67.59
2022-11-08T08:53:51.843Z,65.07
2022-11-08T08:54:51.821Z,68.51
2022-11-08T08:55:51.812Z,65.47
2022-11-08T08:56:51.804Z,64.81
2022-11-08T08:57:51.830Z,64.65
2022-11-08T09:01:53.778Z,67.47
2022-11-08T09:02:51.762Z,65.15
2022-11-08T09:03:51.749Z,67.09
2022-11-08T09:04:51.745Z,67.90
2022-11-08T09:05:51.745Z,67.14
2022-11-08T09:06:51.864Z,66.74
2022-11-08T09:07:51.730Z,64.92
2022-11-08T09:08:51.724Z,63.92
2022-11-08T09:09:51.702Z,67.26
2022-11-08T09:10:51.701Z,66.61
2022-11-08T09:11:53.496Z,66.97
2022-11-08T09:12:52.422Z,64.52
2022-11-08T09:13:51.705Z,66.59
2022-11-08T09:14:51.674Z,65.03
2022-11-08T09:15:51.670Z,65.64
2022-11-08T09:16:51.650Z,66.82
2022-11-08T09:17:53.415Z,65.59
2022-11-08T09:18:51.664Z,69.63
2022-11-08T09:19:56.955Z,69.81
2022-11-08T09:20:53.529Z,70.87
2022-11-08T09:21:51.635Z,71.26
2022-11-08T09:22:52.017Z,70.34
2022-11-08T09:23:53.446Z,65.49
2022-11-08T09:24:51.590Z,66.27
2022-11-08T09:25:51.582Z,64.95
2022-11-08T09:26:51.566Z,68.07
2022-11-08T09:27:51.568Z,64.48
2022-11-08T09:28:52.423Z,64.99
2022-11-08T09:29:51.539Z,63.37
2022-11-08T09:30:51.556Z,68.04
2022-11-08T09:31:51.529Z,66.12
2022-11-08T09:33:00.878Z,66.39
2022-11-08T09:33:53.591Z,67.07
2022-11-08T09:34:51.532Z,66.44
2022-11-08T09:35:51.508Z,65.18
2022-11-08T09:36:51.490Z,66.56
2022-11-08T09:37:51.502Z,66.04
2022-11-08T09:38:52.434Z,63.80
2022-11-08T09:39:51.487Z,65.58
2022-11-08T09:40:51.464Z,67.75
2022-11-08T09:41:55.657Z,65.46
2022-11-08T09:42:52.440Z,66.11
2022-11-08T09:43:51.434Z,66.16
2022-11-08T09:44:51.444Z,67.86
2022-11-08T09:45:51.436Z,67.60
2022-11-08T09:46:51.419Z,67.01
2022-11-08T09:47:53.098Z,66.75
2022-11-08T09:48:51.397Z,67.83
2022-11-08T09:49:51.393Z,65.83
2022-11-08T09:50:52.390Z,64.04
2022-11-08T09:51:51.368Z,67.65
2022-11-08T09:52:52.921Z,66.56
2022-11-08T09:53:52.931Z,66.51
2022-11-08T09:54:51.351Z,68.14
2022-11-08T09:55:51.377Z,68.47
2022-11-08T09:56:51.362Z,67.43
2022-11-08T09:57:51.334Z,67.89
2022-11-08T09:58:51.433Z,65.77
2022-11-08T09:59:51.324Z,66.28
2022-11-08T10:00:51.482Z,66.11
2022-11-08T10:01:52.964Z,65.29
2022-11-08T10:02:55.014Z,64.61
2022-11-08T10:03:51.283Z,65.09
2022-11-08T10:04:52.930Z,65.11
2022-11-08T10:05:52.933Z,65.47
2022-11-08T10:06:51.314Z,65.74
2022-11-08T10:07:52.302Z,64.74
2022-11-08T10:08:51.238Z,64.59
2022-11-08T10:09:51.233Z,63.61
2022-11-08T10:10:51.232Z,62.24
2022-11-08T10:11:51.240Z,63.59
2022-11-08T10:12:51.204Z,64.97
2022-11-08T10:13:51.191Z,64.11
2022-11-08T10:14:54.355Z,64.77
2022-11-08T10:15:52.182Z,66.72
2022-11-08T10:16:51.174Z,64.55
2022-11-08T10:17:51.169Z,67.47
2022-11-08T10:18:51.148Z,68.72
2022-11-08T10:19:51.142Z,69.33
2022-11-08T10:20:51.139Z,68.43
2022-11-08T10:21:51.936Z,63.99
2022-11-08T10:22:51.127Z,66.36
2022-11-08T10:23:51.126Z,63.20
2022-11-08T10:24:51.118Z,64.19
2022-11-08T10:25:51.115Z,65.47
2022-11-08T10:26:51.104Z,65.16
2022-11-08T10:27:51.084Z,65.32
2022-11-08T10:28:51.103Z,65.56
2022-11-08T10:29:51.942Z,68.04
2022-11-08T10:30:52.974Z,69.85
2022-11-08T10:31:51.058Z,67.29
2022-11-08T10:32:51.066Z,68.47
2022-11-08T10:33:51.044Z,67.73
2022-11-08T10:34:51.035Z,66.70
2022-11-08T10:35:51.038Z,66.62
2022-11-08T10:36:51.024Z,68.79
2022-11-08T10:37:51.014Z,66.79
2022-11-08T10:38:51.012Z,64.93
2022-11-08T10:39:51.000Z,64.33
2022-11-08T10:40:50.997Z,65.18
2022-11-08T10:41:51.001Z,67.94
2022-11-08T10:42:50.972Z,66.28
2022-11-08T10:43:50.966Z,65.64
2022-11-08T10:44:50.963Z,65.76
2022-11-08T10:45:50.997Z,64.21
2022-11-08T10:46:50.955Z,66.23
2022-11-08T10:47:52.440Z,64.51
2022-11-08T10:48:50.929Z,64.62
2022-11-08T10:49:50.935Z,67.13
2022-11-08T10:50:50.915Z,65.91
2022-11-08T10:51:52.519Z,64.60
2022-11-08T10:52:50.987Z,67.69
2022-11-08T10:53:50.896Z,66.65
2022-11-08T10:54:50.882Z,66.66
2022-11-08T10:55:50.869Z,67.71
2022-11-08T10:56:50.918Z,67.12
2022-11-08T10:57:51.842Z,69.54
2022-11-08T10:58:50.850Z,65.89
2022-11-08T10:59:50.833Z,65.50
2022-11-08T11:00:50.824Z,66.96
2022-11-08T11:01:50.860Z,65.73
2022-11-08T11:02:50.815Z,66.89
2022-11-08T11:03:51.534Z,66.74
2022-11-08T11:04:52.528Z,67.61
2022-11-08T11:05:50.796Z,66.61
2022-11-08T11:06:50.824Z,64.66
2022-11-08T11:07:50.771Z,63.58
2022-11-08T11:08:51.122Z,63.73
2022-11-08T11:09:50.758Z,66.11
2022-11-08T11:10:50.785Z,65.70
2022-11-08T11:11:50.749Z,64.21
2022-11-08T11:12:50.757Z,63.02
2022-11-08T11:13:50.729Z,68.30
2022-11-08T11:14:50.731Z,67.49
2022-11-08T11:15:51.553Z,67.29
2022-11-08T11:16:50.704Z,64.75
2022-11-08T11:17:50.701Z,67.28
2022-11-08T11:18:50.728Z,66.30
2022-11-08T11:19:50.674Z,70.11
2022-11-08T11:20:50.671Z,68.57
2022-11-08T11:21:50.662Z,66.91
2022-11-08T11:22:50.675Z,67.39
2022-11-08T11:23:50.650Z,65.31
2022-11-08T11:24:50.834Z,67.58
2022-11-08T11:25:50.636Z,66.19
2022-11-08T11:26:50.630Z,66.41
2022-11-08T11:27:50.618Z,66.85
2022-11-08T11:28:50.613Z,66.28
2022-11-08T11:29:50.599Z,63.38
2022-11-08T11:30:50.592Z,67.87
2022-11-08T11:31:50.603Z,66.17
2022-11-08T11:32:50.587Z,64.45
2022-11-08T11:33:50.578Z,65.97
2022-11-08T11:34:50.628Z,66.21
2022-11-08T11:35:50.568Z,66.52
2022-11-08T11:36:51.543Z,65.96
2022-11-08T11:37:50.539Z,65.24
2022-11-08T11:38:50.577Z,64.00
2022-11-08T11:39:50.529Z,64.64
2022-11-08T11:40:50.603Z,62.81
2022-11-08T11:41:50.516Z,66.25
2022-11-08T11:42:50.501Z,63.10
2022-11-08T11:43:50.492Z,65.16
2022-11-08T11:44:50.490Z,64.86
2022-11-08T11:45:50.480Z,63.87
2022-11-08T11:46:50.469Z,64.77
2022-11-08T11:47:50.477Z,63.95
2022-11-08T11:48:50.467Z,65.49
2022-11-08T11:49:50.455Z,65.85
2022-11-08T11:50:50.494Z,67.68
2022-11-08T11:51:50.432Z,65.23
2022-11-08T11:52:50.431Z,65.61
2022-11-08T11:53:50.413Z,65.76
2022-11-08T11:54:50.432Z,64.89
2022-11-08T11:55:50.400Z,65.04
2022-11-08T11:56:50.392Z,64.83
2022-11-08T11:57:50.428Z,66.29
2022-11-08T11:58:50.381Z,66.43
2022-11-08T11:59:50.379Z,66.56
2022-11-08T12:00:50.386Z,68.25
2022-11-08T12:01:50.397Z,66.88
2022-11-08T12:02:50.352Z,67.97
2022-11-08T12:03:50.341Z,67.34
2022-11-08T12:04:50.342Z,67.48
2022-11-08T12:05:50.321Z,68.01
2022-11-08T12:06:50.357Z,65.85
2022-11-08T12:07:50.299Z,67.83
2022-11-08T12:08:50.400Z,65.79
2022-11-08T12:09:50.305Z,65.26
2022-11-08T12:10:50.309Z,65.55
2022-11-08T12:11:50.300Z,66.85
2022-11-08T12:12:51.086Z,66.66
2022-11-08T12:13:54.155Z,63.53
2022-11-08T12:14:53.051Z,66.25
2022-11-08T12:15:54.005Z,66.68
2022-11-08T12:16:50.236Z,65.82
2022-11-08T12:17:50.220Z,65.14
2022-11-08T12:18:50.666Z,66.72
2022-11-08T12:19:50.216Z,68.34
2022-11-08T12:20:50.199Z,69.51
2022-11-08T12:21:50.200Z,68.96
2022-11-08T12:22:50.985Z,67.28
2022-11-08T12:23:50.187Z,65.57
2022-11-08T12:24:50.183Z,65.02
2022-11-08T12:25:50.165Z,72.26
2022-11-08T12:26:50.157Z,64.27
2022-11-08T12:27:52.065Z,65.74
2022-11-08T12:28:51.199Z,65.60
2022-11-08T12:29:50.138Z,64.40
2022-11-08T12:30:50.129Z,64.31
2022-11-08T12:31:53.968Z,67.23
2022-11-08T12:32:53.976Z,65.66
2022-11-08T12:33:52.745Z,65.00
2022-11-08T12:34:52.127Z,65.40
2022-11-08T12:35:50.087Z,63.73
2022-11-08T12:36:50.144Z,66.15
2022-11-08T12:37:50.078Z,65.76
2022-11-08T12:38:51.112Z,62.92
2022-11-08T12:39:50.062Z,65.83
2022-11-08T12:40:50.056Z,64.11
2022-11-08T12:41:50.073Z,65.34
2022-11-08T12:42:50.084Z,65.37
2022-11-08T12:43:50.026Z,64.32
2022-11-08T12:44:50.086Z,65.17
2022-11-08T12:45:50.048Z,62.77
2022-11-08T12:46:50.985Z,64.80
2022-11-08T12:47:49.993Z,63.63
2022-11-08T12:48:49.986Z,62.03
2022-11-08T12:49:49.975Z,62.70
2022-11-08T12:50:49.986Z,66.75
2022-11-08T12:51:49.989Z,63.81
2022-11-08T12:52:49.955Z,64.81
2022-11-08T12:53:49.949Z,63.53
2022-11-08T12:54:49.936Z,65.84
2022-11-08T12:55:49.939Z,66.00
2022-11-08T12:56:49.918Z,65.60
2022-11-08T12:57:49.917Z,66.27
2022-11-08T12:58:49.924Z,64.51
2022-11-08T12:59:49.910Z,65.41
2022-11-08T13:00:49.987Z,65.71
2022-11-08T13:01:49.883Z,64.49
2022-11-08T13:02:49.880Z,67.89
2022-11-08T13:03:49.869Z,65.52